Time;durP1;ratioP1;P1;durP2;ratioP2;P2;SDS_P1;SDS_P2;PMS_P1;PMS_P2;Temp;Humidity;BMP_temperature;BMP_pressure;BME280_temperature;BME280_humidity;BME280_pressure;Samples;Min_cycle;Max_cycle;Signal;HPM_P1;HPM_P2
2022/06/28 00:02:01;;;;;;;16.45;4.70;;;;;;;;;;5057815;28;20127;-69
2022/06/28 00:04:29;;;;;;;10.73;4.15;;;;;;;;;;5060974;28;20132;-69
2022/06/28 00:06:56;;;;;;;13.27;4.30;;;;;;;;;;5055942;28;20060;-69
2022/06/28 00:09:24;;;;;;;12.38;4.00;;;;;;;;;;5050216;28;20110;-69
2022/06/28 00:11:52;;;;;;;12.38;4.72;;;;;;;;;;5055680;28;20079;-69
2022/06/28 00:17:05;;;;;;;11.95;4.55;;;;;;;;;;5057023;28;20169;-69
2022/06/28 00:19:33;;;;;;;19.55;4.63;;;;;;;;;;5060071;28;20052;-69
2022/06/28 00:22:00;;;;;;;12.10;3.85;;;;;;;;;;5049808;28;20048;-69
2022/06/28 00:24:28;;;;;;;16.67;4.30;;;;;;;;;;5056843;28;20368;-69
2022/06/28 00:26:55;;;;;;;14.45;3.80;;;;;;;;;;5059057;28;20056;-69
2022/06/28 00:29:22;;;;;;;14.60;3.75;;;;;;;;;;5059156;28;20544;-69
2022/06/28 00:31:50;;;;;;;17.90;4.53;;;;;;;;;;5055183;28;20060;-69
2022/06/28 00:34:18;;;;;;;13.32;3.92;;;;;;;;;;5052510;28;20053;-69
2022/06/28 00:36:46;;;;;;;15.13;3.92;;;;;;;;;;5059952;28;20053;-69
2022/06/28 00:39:13;;;;;;;15.45;4.50;;;;;;;;;;5056991;28;20055;-68
2022/06/28 00:41:40;;;;;;;15.02;3.85;;;;;;;;;;5062942;28;20499;-68
2022/06/28 00:44:08;;;;;;;15.07;3.80;;;;;;;;;;5052566;28;20272;-68
2022/06/28 00:46:35;;;;;;;13.20;3.67;;;;;;;;;;5055377;28;20636;-68
2022/06/28 00:49:02;;;;;;;16.00;3.63;;;;;;;;;;5057206;28;20044;-68
2022/06/28 00:51:31;;;;;;;15.23;3.13;;;;;;;;;;5056266;28;20053;-68
2022/06/28 00:53:58;;;;;;;15.27;4.32;;;;;;;;;;5050971;28;20056;-68
2022/06/28 00:56:26;;;;;;;16.23;3.33;;;;;;;;;;5055587;28;20044;-68
2022/06/28 00:58:55;;;;;;;19.48;4.03;;;;;;;;;;5052678;28;20049;-68
2022/06/28 01:01:22;;;;;;;19.88;3.85;;;;;;;;;;5057779;28;20114;-69
2022/06/28 01:03:50;;;;;;;17.25;3.67;;;;;;;;;;5056081;28;20041;-69
2022/06/28 01:06:17;;;;;;;14.75;4.20;;;;;;;;;;5054173;28;20461;-69
2022/06/28 01:08:47;;;;;;;16.13;3.65;;;;;;;;;;5060418;28;20136;-69
2022/06/28 01:11:21;;;;;;;15.93;3.53;;;;;;;;;;5057111;28;20519;-69
2022/06/28 01:13:49;;;;;;;17.85;3.60;;;;;;;;;;5059387;28;20156;-69
2022/06/28 01:16:16;;;;;;;24.92;4.25;;;;;;;;;;5054956;28;20052;-69
2022/06/28 01:18:44;;;;;;;19.67;4.13;;;;;;;;;;5057587;28;20123;-69
2022/06/28 01:21:13;;;;;;;16.80;4.10;;;;;;;;;;5054211;28;20048;-69
2022/06/28 01:23:42;;;;;;;29.55;5.63;;;;;;;;;;5056220;28;20057;-69
2022/06/28 01:26:09;;;;;;;19.05;4.70;;;;;;;;;;5061194;28;20130;-69
2022/06/28 01:28:36;;;;;;;22.35;4.63;;;;;;;;;;5056536;28;20114;-69
2022/06/28 01:31:04;;;;;;;15.75;4.82;;;;;;;;;;5054884;28;20056;-69
2022/06/28 01:33:31;;;;;;;18.15;4.78;;;;;;;;;;5048166;28;20052;-69
2022/06/28 01:35:58;;;;;;;24.42;5.03;;;;;;;;;;5057863;28;20059;-69
2022/06/28 01:38:25;;;;;;;16.83;4.30;;;;;;;;;;5053176;28;20053;-69
2022/06/28 01:40:54;;;;;;;25.85;5.00;;;;;;;;;;5057938;28;20438;-69
2022/06/28 01:43:22;;;;;;;20.30;4.95;;;;;;;;;;5056150;28;20760;-69
2022/06/28 01:45:50;;;;;;;17.40;4.00;;;;;;;;;;5060140;28;20536;-69
2022/06/28 01:48:18;;;;;;;23.17;5.05;;;;;;;;;;5052805;28;20644;-69
2022/06/28 01:50:45;;;;;;;20.85;4.80;;;;;;;;;;5058321;28;20059;-69
2022/06/28 01:53:12;;;;;;;19.30;4.95;;;;;;;;;;5055364;28;20052;-69
2022/06/28 01:55:40;;;;;;;17.65;5.13;;;;;;;;;;5058038;28;20060;-69
2022/06/28 01:58:09;;;;;;;18.27;5.00;;;;;;;;;;5057660;28;20041;-69
2022/06/28 02:00:36;;;;;;;19.45;4.70;;;;;;;;;;5056577;28;20057;-69
2022/06/28 02:03:03;;;;;;;21.40;5.40;;;;;;;;;;5054621;28;20060;-69
2022/06/28 02:05:31;;;;;;;17.95;5.00;;;;;;;;;;5052960;28;20063;-69
2022/06/28 02:07:58;;;;;;;17.35;4.45;;;;;;;;;;5060445;28;20114;-69
2022/06/28 02:10:25;;;;;;;19.88;4.80;;;;;;;;;;5053404;28;20057;-69
2022/06/28 02:12:53;;;;;;;19.55;5.13;;;;;;;;;;5059028;28;20052;-69
2022/06/28 02:15:22;;;;;;;15.93;5.20;;;;;;;;;;5061926;28;20053;-69
2022/06/28 02:17:49;;;;;;;19.23;5.45;;;;;;;;;;5057700;28;20048;-69
2022/06/28 02:20:16;;;;;;;17.25;4.93;;;;;;;;;;5056891;28;20498;-69
2022/06/28 02:22:43;;;;;;;19.00;4.75;;;;;;;;;;5065751;28;20049;-69
2022/06/28 02:25:11;;;;;;;16.73;4.10;;;;;;;;;;5062778;28;20163;-69
2022/06/28 02:27:38;;;;;;;13.50;4.18;;;;;;;;;;5065083;28;20463;-69
2022/06/28 02:30:06;;;;;;;14.20;3.72;;;;;;;;;;5054093;28;20549;-69
2022/06/28 02:32:34;;;;;;;16.33;3.63;;;;;;;;;;5060187;28;20368;-69
2022/06/28 02:40:31;;;;;;;13.65;2.92;;;;;;;;;;5057434;28;20405;-69
2022/06/28 02:42:59;;;;;;;9.15;2.75;;;;;;;;;;5058891;28;20056;-69
2022/06/28 02:45:28;;;;;;;14.07;3.17;;;;;;;;;;5061087;28;20049;-69
2022/06/28 02:47:57;;;;;;;19.20;3.20;;;;;;;;;;5058974;28;20052;-69
2022/06/28 02:50:25;;;;;;;15.10;2.78;;;;;;;;;;5058627;28;20045;-69
2022/06/28 02:52:52;;;;;;;12.02;3.50;;;;;;;;;;5053103;28;20148;-69
2022/06/28 02:55:19;;;;;;;11.02;2.65;;;;;;;;;;5058464;28;20053;-68
2022/06/28 02:57:46;;;;;;;17.33;3.20;;;;;;;;;;5061163;28;20052;-68
2022/06/28 03:00:15;;;;;;;14.02;3.00;;;;;;;;;;5058958;28;20045;-68
2022/06/28 03:02:43;;;;;;;17.23;3.17;;;;;;;;;;5056200;28;20518;-68
2022/06/28 03:05:13;;;;;;;18.27;3.20;;;;;;;;;;5054330;28;20133;-68
2022/06/28 03:07:41;;;;;;;13.30;2.60;;;;;;;;;;5059483;28;20048;-68
2022/06/28 03:10:09;;;;;;;17.95;3.13;;;;;;;;;;5067703;28;20052;-68
2022/06/28 03:12:36;;;;;;;8.52;2.80;;;;;;;;;;5061982;28;20506;-68
2022/06/28 03:15:03;;;;;;;14.88;3.28;;;;;;;;;;5058546;28;20698;-68
2022/06/28 03:17:30;;;;;;;9.82;2.72;;;;;;;;;;5054707;28;20045;-68
2022/06/28 03:19:58;;;;;;;12.30;3.03;;;;;;;;;;5068896;28;20051;-70
2022/06/28 03:22:26;;;;;;;10.32;3.25;;;;;;;;;;5065726;28;20093;-70
2022/06/28 03:24:54;;;;;;;9.43;2.75;;;;;;;;;;5061203;28;20110;-70
2022/06/28 03:27:21;;;;;;;11.93;2.60;;;;;;;;;;5058961;28;20049;-69
2022/06/28 03:29:51;;;;;;;13.30;3.35;;;;;;;;;;5063055;28;20051;-69
2022/06/28 03:32:18;;;;;;;16.67;3.50;;;;;;;;;;5066868;28;20050;-69
2022/06/28 03:34:45;;;;;;;9.77;2.58;;;;;;;;;;5060027;28;20140;-69
2022/06/28 03:37:12;;;;;;;8.55;2.22;;;;;;;;;;5058819;28;20098;-69
2022/06/28 03:39:41;;;;;;;8.77;2.17;;;;;;;;;;5056514;28;20067;-69
2022/06/28 03:42:08;;;;;;;13.10;2.67;;;;;;;;;;5059280;28;20060;-69
2022/06/28 03:44:36;;;;;;;10.65;2.50;;;;;;;;;;5064087;28;20457;-69
2022/06/28 03:47:03;;;;;;;13.00;2.58;;;;;;;;;;5067521;28;20081;-69
2022/06/28 03:49:30;;;;;;;8.88;2.85;;;;;;;;;;5063836;28;20105;-69
2022/06/28 03:51:58;;;;;;;13.57;2.72;;;;;;;;;;5065330;28;20052;-69
2022/06/28 03:54:26;;;;;;;9.20;2.65;;;;;;;;;;5068149;28;20786;-69
2022/06/28 03:56:55;;;;;;;10.45;2.50;;;;;;;;;;5067732;28;20087;-69
2022/06/28 03:59:22;;;;;;;14.05;2.90;;;;;;;;;;5063541;28;20071;-69
2022/06/28 04:01:49;;;;;;;8.27;2.42;;;;;;;;;;5062861;28;20052;-69
2022/06/28 04:04:16;;;;;;;6.47;2.00;;;;;;;;;;5061336;28;20151;-69
2022/06/28 04:06:44;;;;;;;9.25;2.67;;;;;;;;;;5067848;28;20048;-69
2022/06/28 04:09:11;;;;;;;10.23;2.80;;;;;;;;;;5061989;28;20446;-69
2022/06/28 04:11:38;;;;;;;7.75;2.40;;;;;;;;;;5062021;28;20064;-69
2022/06/28 04:14:07;;;;;;;8.85;2.30;;;;;;;;;;5064875;28;20147;-69
2022/06/28 04:16:34;;;;;;;7.43;2.20;;;;;;;;;;5067069;28;20048;-69
2022/06/28 04:19:01;;;;;;;10.68;2.15;;;;;;;;;;5065759;28;20067;-69
2022/06/28 04:21:29;;;;;;;10.23;2.17;;;;;;;;;;5064631;28;20098;-69
2022/06/28 04:23:56;;;;;;;10.50;2.30;;;;;;;;;;5063747;28;20118;-69
2022/06/28 04:26:23;;;;;;;6.97;2.28;;;;;;;;;;5064902;28;20048;-69
2022/06/28 04:28:50;;;;;;;5.82;1.73;;;;;;;;;;5063279;28;20107;-70
2022/06/28 04:31:19;;;;;;;8.65;2.30;;;;;;;;;;5065227;28;20067;-70
2022/06/28 04:33:46;;;;;;;5.13;2.00;;;;;;;;;;5066700;28;20066;-70
2022/06/28 04:36:13;;;;;;;7.18;2.20;;;;;;;;;;5062769;28;20048;-70
2022/06/28 04:38:40;;;;;;;13.63;2.85;;;;;;;;;;5063722;28;20063;-70
2022/06/28 04:41:08;;;;;;;9.90;2.42;;;;;;;;;;5064737;28;20052;-70
2022/06/28 04:43:35;;;;;;;10.63;2.58;;;;;;;;;;5062313;28;20048;-70
2022/06/28 04:46:02;;;;;;;10.02;2.30;;;;;;;;;;5064645;28;20491;-70
2022/06/28 04:48:31;;;;;;;7.78;2.28;;;;;;;;;;5065456;28;21261;-69
2022/06/28 04:51:10;;;;;;;9.90;2.05;;;;;;;;;;5068267;28;20055;-69
2022/06/28 04:53:38;;;;;;;12.15;2.53;;;;;;;;;;5065644;28;20490;-69
2022/06/28 04:56:06;;;;;;;6.57;2.50;;;;;;;;;;5062741;28;20084;-69
2022/06/28 04:58:33;;;;;;;14.05;2.33;;;;;;;;;;5066512;28;20068;-69
2022/06/28 05:01:00;;;;;;;6.80;2.58;;;;;;;;;;5063572;28;20119;-69
2022/06/28 05:03:27;;;;;;;8.65;2.08;;;;;;;;;;5052322;28;20137;-69
2022/06/28 05:05:56;;;;;;;8.57;2.55;;;;;;;;;;5052858;28;20055;-69
2022/06/28 05:08:23;;;;;;;7.97;2.30;;;;;;;;;;5053728;28;20053;-69
2022/06/28 05:10:50;;;;;;;8.75;2.35;;;;;;;;;;5055841;28;20393;-69
2022/06/28 05:13:18;;;;;;;6.88;2.13;;;;;;;;;;5049213;28;20057;-69
2022/06/28 05:15:45;;;;;;;9.40;2.17;;;;;;;;;;5050497;28;20760;-70
2022/06/28 05:18:12;;;;;;;12.93;2.22;;;;;;;;;;5055297;28;20056;-69
2022/06/28 05:20:39;;;;;;;8.55;2.88;;;;;;;;;;5057531;28;20049;-69
2022/06/28 05:23:08;;;;;;;10.43;2.13;;;;;;;;;;5057453;28;20118;-69
2022/06/28 05:25:35;;;;;;;9.93;2.30;;;;;;;;;;5057986;28;20044;-69
2022/06/28 05:28:02;;;;;;;9.93;2.55;;;;;;;;;;5060934;28;20055;-69
2022/06/28 05:30:29;;;;;;;11.38;2.90;;;;;;;;;;5059731;28;20044;-69
2022/06/28 05:32:57;;;;;;;7.60;2.67;;;;;;;;;;5062543;28;20063;-69
2022/06/28 05:35:24;;;;;;;10.85;2.75;;;;;;;;;;5063780;28;20057;-69
2022/06/28 05:37:51;;;;;;;14.38;3.00;;;;;;;;;;5060817;28;20040;-69
2022/06/28 05:40:20;;;;;;;18.27;3.35;;;;;;;;;;5063380;28;20060;-69
2022/06/28 05:42:47;;;;;;;12.50;2.50;;;;;;;;;;5061942;28;20483;-69
2022/06/28 05:45:14;;;;;;;18.25;2.75;;;;;;;;;;5063213;28;20060;-69
2022/06/28 05:47:41;;;;;;;15.50;3.15;;;;;;;;;;5066284;28;20056;-69
2022/06/28 05:50:09;;;;;;;11.35;2.95;;;;;;;;;;5063323;28;20049;-70
2022/06/28 05:52:36;;;;;;;14.95;3.05;;;;;;;;;;5061276;28;20507;-69
2022/06/28 05:55:03;;;;;;;11.68;2.88;;;;;;;;;;5075005;28;20051;-69
2022/06/28 05:57:32;;;;;;;13.63;3.33;;;;;;;;;;5068500;28;20483;-69
2022/06/28 05:59:59;;;;;;;13.00;2.95;;;;;;;;;;5067262;28;20060;-69
2022/06/28 06:02:26;;;;;;;19.00;3.40;;;;;;;;;;5067935;28;20469;-69
2022/06/28 06:04:54;;;;;;;14.02;3.35;;;;;;;;;;5068416;28;20064;-69
2022/06/28 06:07:22;;;;;;;11.48;3.00;;;;;;;;;;5068870;28;20167;-69
2022/06/28 06:09:49;;;;;;;18.45;3.03;;;;;;;;;;5065001;28;20140;-69
2022/06/28 06:12:16;;;;;;;17.05;3.30;;;;;;;;;;5066367;28;20055;-69
2022/06/28 06:14:45;;;;;;;11.35;3.13;;;;;;;;;;5066195;28;20052;-69
2022/06/28 06:17:12;;;;;;;18.98;3.00;;;;;;;;;;5067155;28;20059;-69
2022/06/28 06:19:39;;;;;;;14.50;3.90;;;;;;;;;;5066262;28;20040;-69
2022/06/28 06:22:06;;;;;;;14.40;3.03;;;;;;;;;;5066186;28;20057;-69
2022/06/28 06:24:34;;;;;;;14.48;3.08;;;;;;;;;;5069125;28;20114;-69
2022/06/28 06:27:01;;;;;;;19.60;3.28;;;;;;;;;;5073488;28;20060;-69
2022/06/28 06:29:29;;;;;;;18.73;3.17;;;;;;;;;;5058323;28;20421;-69
2022/06/28 06:31:58;;;;;;;17.15;2.92;;;;;;;;;;5064602;28;20063;-69
2022/06/28 06:34:25;;;;;;;17.83;3.88;;;;;;;;;;5063183;28;20534;-69
2022/06/28 06:36:52;;;;;;;15.95;3.00;;;;;;;;;;5059164;28;20369;-69
2022/06/28 06:39:20;;;;;;;21.35;3.28;;;;;;;;;;5062349;28;20056;-69
2022/06/28 06:41:47;;;;;;;16.13;2.38;;;;;;;;;;5064462;28;20048;-69
2022/06/28 06:44:14;;;;;;;13.60;2.67;;;;;;;;;;5058901;28;20052;-69
2022/06/28 06:46:41;;;;;;;16.23;2.80;;;;;;;;;;5062009;28;20110;-69
2022/06/28 06:49:14;;;;;;;13.90;2.60;;;;;;;;;;5057735;28;20415;-69
2022/06/28 06:51:43;;;;;;;10.77;2.50;;;;;;;;;;5062915;28;20045;-69
2022/06/28 06:54:10;;;;;;;12.80;2.45;;;;;;;;;;5054719;28;20064;-69
2022/06/28 06:56:38;;;;;;;13.95;2.17;;;;;;;;;;5063129;28;20078;-69
2022/06/28 06:59:07;;;;;;;13.25;3.03;;;;;;;;;;5054008;28;20080;-69
2022/06/28 07:01:34;;;;;;;16.60;2.40;;;;;;;;;;5058964;28;20049;-69
2022/06/28 07:04:01;;;;;;;13.30;2.28;;;;;;;;;;5053609;28;20165;-69
2022/06/28 07:06:30;;;;;;;8.30;2.22;;;;;;;;;;5056235;28;20519;-69
2022/06/28 07:08:57;;;;;;;13.75;2.95;;;;;;;;;;5055445;28;20056;-69
2022/06/28 07:11:24;;;;;;;14.98;2.22;;;;;;;;;;5060704;28;20048;-69
2022/06/28 07:13:52;;;;;;;12.52;2.38;;;;;;;;;;5055051;28;20060;-69
2022/06/28 07:16:19;;;;;;;16.45;2.20;;;;;;;;;;5058108;28;20097;-69
2022/06/28 07:18:46;;;;;;;14.45;2.22;;;;;;;;;;5055922;28;20060;-69
2022/06/28 07:21:14;;;;;;;13.77;2.20;;;;;;;;;;5057427;28;20049;-69
2022/06/28 07:23:42;;;;;;;9.20;2.00;;;;;;;;;;5067511;28;20052;-69
2022/06/28 07:26:10;;;;;;;19.38;2.22;;;;;;;;;;5059205;28;20118;-69
2022/06/28 07:28:37;;;;;;;11.98;2.17;;;;;;;;;;5061685;28;20049;-69
2022/06/28 07:31:04;;;;;;;7.53;2.00;;;;;;;;;;5058034;28;20085;-69
2022/06/28 07:33:32;;;;;;;15.30;2.00;;;;;;;;;;5063178;28;20131;-69
2022/06/28 07:35:59;;;;;;;10.07;1.67;;;;;;;;;;5057945;28;20060;-69
2022/06/28 07:38:29;;;;;;;8.63;1.80;;;;;;;;;;5059214;28;20075;-69
2022/06/28 07:40:58;;;;;;;12.77;2.08;;;;;;;;;;5054625;28;20056;-69
2022/06/28 07:43:26;;;;;;;17.38;2.15;;;;;;;;;;5064199;28;20560;-69
2022/06/28 07:45:53;;;;;;;10.65;1.60;;;;;;;;;;5065497;28;20106;-69
2022/06/28 07:48:20;;;;;;;11.15;2.30;;;;;;;;;;5061852;28;20107;-69
2022/06/28 07:53:33;;;;;;;12.57;2.08;;;;;;;;;;5059206;28;20045;-69
2022/06/28 07:56:02;;;;;;;12.93;1.90;;;;;;;;;;5064727;28;20067;-69
2022/06/28 07:58:29;;;;;;;14.30;2.03;;;;;;;;;;5059621;28;20083;-69
2022/06/28 08:00:57;;;;;;;9.05;1.60;;;;;;;;;;5059482;28;20052;-69
2022/06/28 08:03:24;;;;;;;11.80;1.88;;;;;;;;;;5062636;28;20106;-69
2022/06/28 08:05:51;;;;;;;7.97;1.70;;;;;;;;;;5067575;28;20063;-69
2022/06/28 08:08:18;;;;;;;12.77;1.85;;;;;;;;;;5066474;28;20371;-69
2022/06/28 08:10:46;;;;;;;11.95;1.80;;;;;;;;;;5066134;28;20096;-69
2022/06/28 08:13:16;;;;;;;12.55;1.75;;;;;;;;;;5066731;28;20052;-69
2022/06/28 08:15:43;;;;;;;10.90;1.60;;;;;;;;;;5060582;28;20068;-69
2022/06/28 08:18:10;;;;;;;9.63;2.00;;;;;;;;;;5063136;28;20052;-69
2022/06/28 08:20:38;;;;;;;10.23;1.83;;;;;;;;;;5066230;28;20048;-69
2022/06/28 08:23:05;;;;;;;8.50;1.88;;;;;;;;;;5060847;28;20060;-69
2022/06/28 08:25:32;;;;;;;5.40;1.45;;;;;;;;;;5064072;28;20106;-69
2022/06/28 08:27:59;;;;;;;9.45;2.05;;;;;;;;;;5063872;28;20098;-69
2022/06/28 08:30:28;;;;;;;8.75;1.70;;;;;;;;;;5064739;28;20367;-69
2022/06/28 08:32:56;;;;;;;13.45;1.95;;;;;;;;;;5065009;28;20048;-69
2022/06/28 08:35:23;;;;;;;8.32;1.77;;;;;;;;;;5064759;28;20061;-69
2022/06/28 08:37:50;;;;;;;8.20;1.40;;;;;;;;;;5064417;28;20414;-69
2022/06/28 08:40:18;;;;;;;7.85;2.05;;;;;;;;;;5060892;28;20087;-69
2022/06/28 08:42:48;;;;;;;11.43;2.38;;;;;;;;;;5065814;28;20385;-69
2022/06/28 08:45:16;;;;;;;8.98;1.65;;;;;;;;;;5065234;28;20044;-69
2022/06/28 08:47:47;;;;;;;8.38;1.63;;;;;;;;;;5064923;28;20083;-69
2022/06/28 08:50:16;;;;;;;6.22;1.40;;;;;;;;;;5060042;28;20579;-69
2022/06/28 08:52:44;;;;;;;7.78;1.50;;;;;;;;;;5055472;28;20052;-69
2022/06/28 08:55:11;;;;;;;12.02;1.60;;;;;;;;;;5064648;28;20140;-69
2022/06/28 08:57:39;;;;;;;7.43;1.30;;;;;;;;;;5059460;28;20063;-69
2022/06/28 09:00:09;;;;;;;7.75;1.58;;;;;;;;;;5067165;28;20403;-69
2022/06/28 09:02:36;;;;;;;8.68;1.52;;;;;;;;;;5068397;28;20053;-69
2022/06/28 09:05:05;;;;;;;10.35;1.52;;;;;;;;;;5068543;28;20060;-69
2022/06/28 09:07:32;;;;;;;12.23;1.98;;;;;;;;;;5070590;28;20581;-69
2022/06/28 09:09:59;;;;;;;8.13;1.58;;;;;;;;;;5056901;28;20044;-69
2022/06/28 09:12:26;;;;;;;8.43;1.70;;;;;;;;;;5067509;28;20056;-69
2022/06/28 09:14:54;;;;;;;7.75;1.60;;;;;;;;;;5072446;28;20380;-69
2022/06/28 09:17:22;;;;;;;10.20;1.55;;;;;;;;;;5064509;28;20048;-69
2022/06/28 09:19:50;;;;;;;6.05;1.40;;;;;;;;;;5063846;28;20158;-69
2022/06/28 09:22:33;;;;;;;8.30;1.70;;;;;;;;;;5070841;28;20045;-69
2022/06/28 09:25:01;;;;;;;7.13;1.60;;;;;;;;;;5068416;28;20496;-69
2022/06/28 09:27:29;;;;;;;6.28;1.40;;;;;;;;;;5067419;28;20556;-69
2022/06/28 09:29:56;;;;;;;8.40;1.80;;;;;;;;;;5066801;28;20097;-69
2022/06/28 09:32:28;;;;;;;7.68;1.45;;;;;;;;;;5056885;28;20059;-69
2022/06/28 09:34:56;;;;;;;5.93;1.50;;;;;;;;;;5064651;28;20530;-69
2022/06/28 09:37:35;;;;;;;7.60;1.25;;;;;;;;;;5064777;28;20063;-69
2022/06/28 09:40:13;;;;;;;8.75;1.58;;;;;;;;;;5057676;28;20056;-69
2022/06/28 09:42:40;;;;;;;8.27;1.50;;;;;;;;;;5060465;28;20053;-69
2022/06/28 09:45:08;;;;;;;5.88;1.70;;;;;;;;;;5060583;28;20044;-69
2022/06/28 09:47:35;;;;;;;6.72;1.60;;;;;;;;;;5058976;28;20068;-69
2022/06/28 09:50:06;;;;;;;7.47;1.60;;;;;;;;;;5063324;28;20052;-69
2022/06/28 09:52:35;;;;;;;6.47;1.52;;;;;;;;;;5072498;28;20561;-69
2022/06/28 09:55:02;;;;;;;9.45;1.45;;;;;;;;;;5069999;28;20491;-69
2022/06/28 09:57:30;;;;;;;5.85;1.70;;;;;;;;;;5069124;28;20079;-69
2022/06/28 09:59:58;;;;;;;7.57;1.40;;;;;;;;;;5067523;28;20044;-69
2022/06/28 10:02:25;;;;;;;11.15;1.52;;;;;;;;;;5065323;28;20387;-69
2022/06/28 10:04:52;;;;;;;8.35;1.80;;;;;;;;;;5064151;28;20102;-69
2022/06/28 10:07:20;;;;;;;5.40;1.38;;;;;;;;;;5063781;28;20123;-69
2022/06/28 10:09:48;;;;;;;6.68;1.45;;;;;;;;;;5057308;28;20072;-69
2022/06/28 10:15:04;;;;;;;5.97;1.35;;;;;;;;;;5061256;28;20059;-69
2022/06/28 10:17:50;;;;;;;8.35;1.70;;;;;;;;;;5067278;28;20052;-69
2022/06/28 10:20:20;;;;;;;9.05;1.80;;;;;;;;;;5066965;28;20068;-69
2022/06/28 10:22:47;;;;;;;6.18;1.55;;;;;;;;;;5068311;28;20056;-69
2022/06/28 10:25:17;;;;;;;8.68;1.92;;;;;;;;;;5066558;28;20131;-69
2022/06/28 10:27:46;;;;;;;8.77;1.83;;;;;;;;;;5065248;28;20064;-69
2022/06/28 10:30:20;;;;;;;10.55;1.95;;;;;;;;;;5068630;28;20060;-69
2022/06/28 10:32:48;;;;;;;6.22;1.75;;;;;;;;;;5064587;28;20102;-69
2022/06/28 10:35:47;;;;;;;10.57;1.40;;;;;;;;;;5067720;28;20102;-69
2022/06/28 10:38:17;;;;;;;7.07;1.77;;;;;;;;;;5041618;28;20056;-69
2022/06/28 10:40:49;;;;;;;7.22;1.55;;;;;;;;;;5057502;28;20059;-69
2022/06/28 10:43:17;;;;;;;5.53;1.35;;;;;;;;;;5068624;28;20044;-69
2022/06/28 10:46:03;;;;;;;6.65;1.60;;;;;;;;;;5067249;28;20044;-69
2022/06/28 10:48:31;;;;;;;6.82;1.85;;;;;;;;;;5064617;28;20049;-69
2022/06/28 10:50:58;;;;;;;7.40;1.58;;;;;;;;;;5062828;28;20052;-69
2022/06/28 10:53:25;;;;;;;5.22;1.70;;;;;;;;;;5053266;28;20385;-69
2022/06/28 10:56:14;;;;;;;12.20;2.05;;;;;;;;;;5064426;28;20083;-69
2022/06/28 10:58:54;;;;;;;9.23;1.85;;;;;;;;;;5060073;28;20048;-69
2022/06/28 11:01:42;;;;;;;6.18;1.38;;;;;;;;;;5066388;28;20474;-69
2022/06/28 11:04:10;;;;;;;6.70;1.90;;;;;;;;;;5065628;28;20083;-69
2022/06/28 11:06:40;;;;;;;5.75;1.77;;;;;;;;;;5066138;28;20072;-69
2022/06/28 11:09:09;;;;;;;5.45;1.50;;;;;;;;;;5067634;28;20533;-69
2022/06/28 11:11:36;;;;;;;9.98;1.67;;;;;;;;;;5067268;28;20037;-69
2022/06/28 11:14:22;;;;;;;10.02;1.67;;;;;;;;;;5064258;28;20509;-69
2022/06/28 11:16:50;;;;;;;8.40;1.90;;;;;;;;;;5066816;28;20109;-70
2022/06/28 11:19:18;;;;;;;10.60;1.98;;;;;;;;;;5066081;28;20097;-70
2022/06/28 11:21:45;;;;;;;10.07;1.80;;;;;;;;;;5062009;28;20442;-70
2022/06/28 11:24:13;;;;;;;10.57;1.90;;;;;;;;;;5065986;28;20503;-70
2022/06/28 11:29:25;;;;;;;10.52;2.28;;;;;;;;;;5057340;28;20457;-70
2022/06/28 11:31:54;;;;;;;12.23;2.50;;;;;;;;;;5066675;28;20052;-69
2022/06/28 11:34:25;;;;;;;8.75;2.20;;;;;;;;;;5064108;28;20114;-69
2022/06/28 11:36:55;;;;;;;9.05;2.47;;;;;;;;;;5063425;28;20074;-69
2022/06/28 11:39:23;;;;;;;12.27;2.15;;;;;;;;;;5062242;28;20127;-69
2022/06/28 11:41:51;;;;;;;8.50;2.25;;;;;;;;;;5054508;28;20045;-69
2022/06/28 11:44:18;;;;;;;10.68;2.30;;;;;;;;;;5061246;28;20057;-69
2022/06/28 11:46:46;;;;;;;10.13;2.25;;;;;;;;;;5056716;28;20113;-70
2022/06/28 11:49:14;;;;;;;8.38;2.28;;;;;;;;;;5060523;28;20052;-70
2022/06/28 11:51:42;;;;;;;9.15;2.10;;;;;;;;;;5063271;28;20048;-70
2022/06/28 11:54:10;;;;;;;9.98;2.10;;;;;;;;;;5063556;28;20060;-70
2022/06/28 11:56:44;;;;;;;10.55;1.92;;;;;;;;;;5056567;28;20056;-70
2022/06/28 11:59:11;;;;;;;8.45;2.42;;;;;;;;;;5059873;28;20070;-70
2022/06/28 12:01:39;;;;;;;7.78;2.20;;;;;;;;;;5062367;28;20049;-70
2022/06/28 12:04:07;;;;;;;9.93;2.15;;;;;;;;;;5063638;28;20056;-70
2022/06/28 12:06:37;;;;;;;9.95;2.08;;;;;;;;;;5065588;28;20048;-70
2022/06/28 12:09:04;;;;;;;7.05;2.22;;;;;;;;;;5064367;28;20153;-70
2022/06/28 12:11:34;;;;;;;8.52;2.10;;;;;;;;;;5052620;28;20499;-70
2022/06/28 12:14:05;;;;;;;5.88;1.75;;;;;;;;;;5054974;28;20060;-70
2022/06/28 12:16:33;;;;;;;10.00;2.10;;;;;;;;;;5059999;28;20044;-70
2022/06/28 12:19:00;;;;;;;8.40;1.92;;;;;;;;;;5057996;28;20067;-70
2022/06/28 12:21:28;;;;;;;10.27;2.03;;;;;;;;;;5053650;28;20068;-71
2022/06/28 12:23:58;;;;;;;6.32;1.75;;;;;;;;;;5054928;28;20508;-70
2022/06/28 12:26:38;;;;;;;6.38;1.83;;;;;;;;;;5058052;28;20049;-70
2022/06/28 12:29:05;;;;;;;8.27;2.22;;;;;;;;;;5066734;28;20045;-70
2022/06/28 12:31:32;;;;;;;8.55;2.08;;;;;;;;;;5058790;28;20051;-70
2022/06/28 12:33:59;;;;;;;9.98;2.35;;;;;;;;;;5054587;28;20056;-70
2022/06/28 12:36:27;;;;;;;5.97;1.90;;;;;;;;;;5056099;28;20136;-70
2022/06/28 12:38:54;;;;;;;7.00;1.50;;;;;;;;;;5060732;28;20059;-70
2022/06/28 12:41:22;;;;;;;5.90;1.77;;;;;;;;;;5062012;28;20533;-70
2022/06/28 12:43:50;;;;;;;8.30;1.73;;;;;;;;;;5060029;28;20060;-70
2022/06/28 12:46:17;;;;;;;4.05;1.40;;;;;;;;;;5057280;28;20119;-70
2022/06/28 12:48:44;;;;;;;5.47;1.50;;;;;;;;;;5061476;28;20125;-70
2022/06/28 12:51:11;;;;;;;8.27;1.73;;;;;;;;;;5058295;28;20048;-70
2022/06/28 12:53:38;;;;;;;4.00;1.50;;;;;;;;;;5058983;28;20048;-70
2022/06/28 12:56:06;;;;;;;5.43;1.30;;;;;;;;;;5063667;28;20056;-70
2022/06/28 12:58:34;;;;;;;6.70;2.08;;;;;;;;;;5061939;28;20052;-70
2022/06/28 13:01:01;;;;;;;4.95;1.52;;;;;;;;;;5063248;28;20094;-70
2022/06/28 13:03:29;;;;;;;7.90;1.90;;;;;;;;;;5060372;28;20049;-70
2022/06/28 13:05:56;;;;;;;4.43;1.52;;;;;;;;;;5060679;28;20480;-70
2022/06/28 13:08:24;;;;;;;8.07;1.83;;;;;;;;;;5055582;28;20052;-70
2022/06/28 13:10:51;;;;;;;6.97;1.85;;;;;;;;;;5058932;28;20051;-68
2022/06/28 13:13:20;;;;;;;8.93;1.90;;;;;;;;;;5060569;28;20182;-68
2022/06/28 13:15:49;;;;;;;6.03;1.83;;;;;;;;;;5065200;28;20051;-68
2022/06/28 13:18:16;;;;;;;6.57;1.70;;;;;;;;;;5055166;28;20056;-68
2022/06/28 13:20:43;;;;;;;5.00;1.80;;;;;;;;;;5057402;28;20790;-69
2022/06/28 13:23:10;;;;;;;6.57;1.60;;;;;;;;;;5060815;28;20055;-69
2022/06/28 13:25:38;;;;;;;5.95;1.60;;;;;;;;;;5063974;28;20056;-68
2022/06/28 13:28:05;;;;;;;4.90;1.70;;;;;;;;;;5065819;28;20048;-68
2022/06/28 13:30:33;;;;;;;5.80;1.70;;;;;;;;;;5058149;28;20056;-68
2022/06/28 13:33:01;;;;;;;6.97;1.80;;;;;;;;;;5062373;28;20052;-69
2022/06/28 13:35:28;;;;;;;9.13;2.55;;;;;;;;;;5062666;28;20517;-69
2022/06/28 13:37:55;;;;;;;6.60;1.98;;;;;;;;;;5062120;28;20131;-69
2022/06/28 13:40:23;;;;;;;10.07;2.10;;;;;;;;;;5060394;28;20049;-68
2022/06/28 13:42:50;;;;;;;21.02;6.78;;;;;;;;;;5060524;28;20053;-68
2022/06/28 13:45:19;;;;;;;6.30;1.77;;;;;;;;;;5061930;28;20056;-68
2022/06/28 13:47:46;;;;;;;6.35;2.03;;;;;;;;;;5059855;28;20487;-68
2022/06/28 13:50:15;;;;;;;7.72;2.00;;;;;;;;;;5061983;28;20048;-68
2022/06/28 13:52:43;;;;;;;7.72;2.28;;;;;;;;;;5062945;28;20048;-68
2022/06/28 13:55:11;;;;;;;7.20;1.90;;;;;;;;;;5056588;28;20056;-68
2022/06/28 13:57:38;;;;;;;6.72;2.10;;;;;;;;;;5060451;28;20526;-69
2022/06/28 14:00:05;;;;;;;6.65;1.98;;;;;;;;;;5059553;28;20060;-69
2022/06/28 14:02:33;;;;;;;7.80;2.00;;;;;;;;;;5060087;28;20048;-68
2022/06/28 14:05:00;;;;;;;6.75;1.92;;;;;;;;;;5068772;28;20076;-68
2022/06/28 14:07:28;;;;;;;6.43;2.17;;;;;;;;;;5068960;28;20040;-69
2022/06/28 14:09:56;;;;;;;6.20;1.95;;;;;;;;;;5069398;28;20061;-69
2022/06/28 14:12:23;;;;;;;8.88;2.17;;;;;;;;;;5061707;28;20415;-69
2022/06/28 14:14:50;;;;;;;7.80;2.22;;;;;;;;;;5058614;28;20056;-69
2022/06/28 14:17:17;;;;;;;6.38;2.30;;;;;;;;;;5064856;28;20056;-69
2022/06/28 14:19:45;;;;;;;7.88;2.17;;;;;;;;;;5066787;28;20178;-69
2022/06/28 14:22:12;;;;;;;7.40;2.38;;;;;;;;;;5065769;28;20060;-69
2022/06/28 14:24:40;;;;;;;8.77;2.42;;;;;;;;;;5068664;28;20491;-69
2022/06/28 14:27:08;;;;;;;5.38;2.13;;;;;;;;;;5062367;28;20060;-69
2022/06/28 14:29:35;;;;;;;10.40;2.70;;;;;;;;;;5063290;28;20199;-69
2022/06/28 14:32:02;;;;;;;7.50;2.38;;;;;;;;;;5065386;28;20048;-69
2022/06/28 14:34:30;;;;;;;8.45;2.72;;;;;;;;;;5065658;28;20139;-69
2022/06/28 14:36:58;;;;;;;5.57;1.90;;;;;;;;;;5064682;28;20083;-69
2022/06/28 14:39:25;;;;;;;4.80;2.10;;;;;;;;;;5063711;28;20584;-69
2022/06/28 14:41:54;;;;;;;6.85;2.20;;;;;;;;;;5060815;28;20484;-69
2022/06/28 14:44:21;;;;;;;7.63;2.10;;;;;;;;;;5064959;28;20479;-69
2022/06/28 14:46:48;;;;;;;7.47;2.60;;;;;;;;;;5069072;28;20094;-69
2022/06/28 14:49:16;;;;;;;4.95;2.17;;;;;;;;;;5066197;28;20056;-69
2022/06/28 14:51:43;;;;;;;8.07;2.47;;;;;;;;;;5069573;28;20503;-69
2022/06/28 14:54:10;;;;;;;8.52;2.33;;;;;;;;;;5068305;28;20102;-69
2022/06/28 14:56:37;;;;;;;5.57;2.00;;;;;;;;;;5060900;28;20152;-69
2022/06/28 14:59:06;;;;;;;7.68;2.28;;;;;;;;;;5063541;28;20149;-69